West Millgrove, Ohio
Current Conditions -  °F | °C
As of 6:53 PM on Saturday 22 Nov 2014 (Local Time) from KFDY Reporting Station
Overcast Overcast  
Wind Chill: 50°   Ceiling: 7000
Heat Index: 50°   Visibility: 10mi
Dew Point: 40°   Wind: 16mph
Humidity: 68%   Direction: 200°SSW
Pressure: 30"   Gusts: NA
Location:  41.24°N, 83.49°W
Report Text: KFDY 222353Z AUTO 20014KT 10SM SCT048 OVC070 10/04 A3000 RMK AO2 SLP161 60002 T01000044 10117 20083 58003
Loading
Personal Weather Stations






























Interactive Weather Map New forecast layout! Learn more

10-Day Weather Forecast

Advertisements
Track Severe Weather on mobile